createdAt,value
2022-08-17T00:01:32.810Z,22.27
2022-08-17T00:04:19.081Z,22.18
2022-08-17T00:06:46.073Z,22.14
2022-08-17T00:09:18.852Z,22.12
2022-08-17T00:12:43.178Z,22.11
2022-08-17T00:14:36.153Z,22.10
2022-08-17T00:17:04.632Z,22.05
2022-08-17T00:19:32.665Z,22.01
2022-08-17T00:22:30.909Z,22.00
2022-08-17T00:24:49.589Z,21.87
2022-08-17T00:27:16.179Z,21.85
2022-08-17T00:29:42.733Z,21.82
2022-08-17T00:33:15.777Z,21.78
2022-08-17T00:34:55.757Z,21.67
2022-08-17T00:37:22.283Z,21.55
2022-08-17T00:39:48.937Z,21.59
2022-08-17T00:42:18.442Z,21.62
2022-08-17T00:44:45.889Z,21.54
2022-08-17T00:47:12.544Z,21.58
2022-08-17T00:49:39.077Z,21.57
2022-08-17T00:52:15.333Z,21.54
2022-08-17T00:54:44.865Z,21.59
2022-08-17T00:57:17.717Z,21.51
2022-08-17T00:59:47.198Z,21.49
2022-08-17T01:02:35.014Z,21.36
2022-08-17T01:05:15.093Z,21.18
2022-08-17T01:07:42.797Z,21.27
2022-08-17T01:10:58.125Z,21.25
2022-08-17T01:13:02.468Z,21.19
2022-08-17T01:15:36.380Z,21.19
2022-08-17T01:18:05.448Z,21.17
2022-08-17T01:20:32.512Z,21.13
2022-08-17T01:23:18.595Z,21.13
2022-08-17T01:25:52.323Z,21.09
2022-08-17T01:28:52.425Z,20.95
2022-08-17T01:31:08.303Z,20.87
2022-08-17T01:33:35.507Z,20.79
2022-08-17T01:36:03.592Z,20.71
2022-08-17T01:38:31.813Z,20.63
2022-08-17T01:41:06.420Z,20.56
2022-08-17T01:43:39.758Z,20.54
2022-08-17T01:46:06.392Z,20.50
2022-08-17T01:48:34.690Z,20.45
2022-08-17T01:51:01.771Z,20.38
2022-08-17T01:53:34.402Z,20.38
2022-08-17T01:56:11.237Z,20.34
2022-08-17T01:58:38.725Z,20.33
2022-08-17T02:01:07.280Z,20.30
2022-08-17T02:03:34.894Z,20.33
2022-08-17T02:06:02.492Z,20.29
2022-08-17T02:08:38.761Z,20.30
2022-08-17T02:11:12.049Z,20.28
2022-08-17T02:13:39.092Z,20.29
2022-08-17T02:16:05.805Z,20.31
2022-08-17T02:18:32.741Z,20.33
2022-08-17T02:20:59.681Z,20.35
2022-08-17T02:23:30.150Z,20.34
2022-08-17T02:25:59.954Z,20.34
2022-08-17T02:28:28.465Z,20.30
2022-08-17T02:31:00.719Z,20.26
2022-08-17T02:33:42.475Z,20.23
2022-08-17T02:36:11.340Z,20.24
2022-08-17T02:38:38.762Z,20.20
2022-08-17T02:41:05.506Z,20.13
2022-08-17T02:43:32.065Z,20.20
2022-08-17T02:45:58.579Z,20.24
2022-08-17T02:48:31.247Z,20.32
2022-08-17T02:50:58.956Z,20.41
2022-08-17T02:53:25.865Z,20.42
2022-08-17T02:55:53.189Z,20.47
2022-08-17T02:58:35.535Z,20.50
2022-08-17T03:01:05.105Z,20.63
2022-08-17T03:03:32.208Z,20.69
2022-08-17T03:05:58.710Z,20.74
2022-08-17T03:08:25.533Z,20.80
2022-08-17T03:10:52.172Z,20.87
2022-08-17T03:13:18.851Z,20.92
2022-08-17T03:15:47.219Z,20.96
2022-08-17T03:18:25.001Z,21.01
2022-08-17T03:20:55.304Z,21.04
2022-08-17T03:23:24.104Z,21.02
2022-08-17T03:25:52.821Z,21.01
2022-08-17T03:28:19.776Z,20.99
2022-08-17T03:30:46.396Z,20.97
2022-08-17T03:33:13.741Z,20.96
2022-08-17T03:35:41.057Z,20.98
2022-08-17T03:38:10.455Z,21.02
2022-08-17T03:40:57.101Z,20.98
2022-08-17T03:43:23.939Z,20.93
2022-08-17T03:46:23.714Z,20.90
2022-08-17T03:49:13.277Z,20.95
2022-08-17T03:51:58.175Z,20.94
2022-08-17T03:54:43.153Z,20.90
2022-08-17T03:57:11.274Z,20.92
2022-08-17T03:59:39.046Z,20.86
2022-08-17T04:02:28.523Z,20.89
2022-08-17T04:04:55.088Z,20.91
2022-08-17T04:07:24.118Z,20.97
2022-08-17T04:09:51.095Z,20.97
2022-08-17T04:12:19.777Z,21.08
2022-08-17T04:14:53.445Z,21.02
2022-08-17T04:17:27.160Z,21.11
2022-08-17T04:19:55.252Z,21.12
2022-08-17T04:22:30.531Z,21.09
2022-08-17T04:25:01.479Z,21.04
2022-08-17T04:27:28.024Z,20.90
2022-08-17T04:29:55.984Z,21.04
2022-08-17T04:33:04.386Z,21.07
2022-08-17T04:35:10.202Z,21.09
2022-08-17T04:37:36.692Z,21.14
2022-08-17T04:40:22.582Z,21.10
2022-08-17T04:43:20.393Z,21.08
2022-08-17T04:45:55.477Z,21.01
2022-08-17T04:48:29.702Z,21.08
2022-08-17T04:51:05.779Z,21.05
2022-08-17T04:53:32.603Z,21.05
2022-08-17T04:55:59.188Z,21.01
2022-08-17T04:58:25.960Z,21.02
2022-08-17T05:00:52.730Z,21.03
2022-08-17T05:03:19.269Z,20.98
2022-08-17T05:05:49.762Z,21.08
2022-08-17T05:08:19.232Z,21.08
2022-08-17T05:10:46.908Z,21.08
2022-08-17T05:13:17.794Z,21.09
2022-08-17T05:15:47.720Z,21.12
2022-08-17T05:18:15.709Z,21.18
2022-08-17T05:20:43.496Z,21.29
2022-08-17T05:23:12.849Z,21.20
2022-08-17T05:25:47.746Z,21.21
2022-08-17T05:28:16.359Z,21.22
2022-08-17T05:30:44.720Z,21.21
2022-08-17T05:33:21.836Z,21.32
2022-08-17T05:35:51.666Z,21.37
2022-08-17T05:38:19.698Z,21.48
2022-08-17T05:40:46.989Z,21.49
2022-08-17T05:43:17.488Z,21.57
2022-08-17T05:45:59.207Z,21.55
2022-08-17T05:48:35.613Z,21.46
2022-08-17T05:51:32.967Z,21.53
2022-08-17T05:54:17.850Z,21.59
2022-08-17T05:56:50.491Z,21.71
2022-08-17T06:00:03.544Z,21.85
2022-08-17T06:03:06.586Z,21.98
2022-08-17T06:05:42.262Z,22.07
2022-08-17T06:08:18.101Z,22.17
2022-08-17T06:11:06.899Z,22.24
2022-08-17T06:13:36.436Z,22.34
2022-08-17T06:16:28.209Z,22.38
2022-08-17T06:19:06.449Z,22.53
2022-08-17T06:21:39.455Z,22.57
2022-08-17T06:24:23.667Z,22.63
2022-08-17T06:26:52.281Z,22.68
2022-08-17T06:29:35.385Z,22.70
2022-08-17T06:32:03.293Z,22.73
2022-08-17T06:34:29.941Z,22.71
2022-08-17T06:37:03.740Z,22.76
2022-08-17T06:39:39.229Z,22.80
2022-08-17T06:43:04.105Z,22.82
2022-08-17T06:45:20.115Z,22.82
2022-08-17T06:47:53.071Z,22.67
2022-08-17T06:50:29.139Z,22.64
2022-08-17T06:53:28.361Z,22.62
2022-08-17T06:56:13.970Z,22.61
2022-08-17T06:58:43.317Z,22.69
2022-08-17T07:01:18.151Z,22.79
2022-08-17T07:03:54.766Z,22.88
2022-08-17T07:06:38.073Z,22.96
2022-08-17T07:09:14.633Z,22.94
2022-08-17T07:11:50.724Z,22.97
2022-08-17T07:14:39.072Z,23.00
2022-08-17T07:17:15.605Z,22.99
2022-08-17T07:19:45.489Z,23.02
2022-08-17T07:22:57.351Z,23.03
2022-08-17T07:25:21.389Z,23.09
2022-08-17T07:27:51.441Z,23.03
2022-08-17T07:30:22.770Z,23.09
2022-08-17T07:35:23.052Z,23.11
2022-08-17T07:38:24.989Z,23.14
2022-08-17T07:41:05.944Z,23.17
2022-08-17T07:43:46.092Z,23.21
2022-08-17T07:46:38.023Z,23.20
2022-08-17T07:49:07.398Z,23.18
2022-08-17T07:51:55.419Z,23.18
2022-08-17T07:54:29.513Z,23.08
2022-08-17T07:57:00.301Z,22.93
2022-08-17T08:00:02.180Z,22.99
2022-08-17T08:02:40.221Z,22.85
2022-08-17T08:05:12.857Z,22.91
2022-08-17T08:08:01.579Z,23.01
2022-08-17T08:10:35.681Z,23.10
2022-08-17T08:13:15.485Z,23.02
2022-08-17T08:15:53.600Z,23.09
2022-08-17T08:18:53.438Z,23.15
2022-08-17T08:21:33.240Z,23.20
2022-08-17T08:24:21.764Z,23.27
2022-08-17T08:27:07.269Z,23.26
2022-08-17T08:29:46.213Z,23.31
2022-08-17T08:32:25.036Z,23.32
2022-08-17T08:35:07.330Z,23.31
2022-08-17T08:37:55.684Z,23.37
2022-08-17T08:40:56.101Z,23.26
2022-08-17T08:43:38.079Z,23.02
2022-08-17T08:46:37.042Z,22.90
2022-08-17T08:49:12.824Z,22.84
2022-08-17T08:51:53.358Z,22.84
2022-08-17T08:54:41.299Z,22.88
2022-08-17T08:57:34.311Z,22.83
2022-08-17T09:00:09.107Z,22.89
2022-08-17T09:02:57.041Z,22.92
2022-08-17T09:05:41.248Z,22.96
2022-08-17T09:08:32.301Z,22.99
2022-08-17T09:11:12.694Z,22.95
2022-08-17T09:13:46.877Z,22.97
2022-08-17T09:16:33.239Z,23.08
2022-08-17T09:19:17.247Z,23.10
2022-08-17T09:21:58.450Z,23.16
2022-08-17T09:24:40.120Z,22.87
2022-08-17T09:27:14.181Z,22.74
2022-08-17T09:29:49.149Z,22.69
2022-08-17T09:32:40.693Z,22.73
2022-08-17T09:35:22.756Z,22.75
2022-08-17T09:38:19.364Z,22.80
2022-08-17T09:40:57.314Z,22.70
2022-08-17T09:43:43.786Z,22.67
2022-08-17T09:46:30.705Z,22.69
2022-08-17T09:49:06.440Z,22.67
2022-08-17T09:51:40.178Z,22.77
2022-08-17T09:54:38.135Z,22.71
2022-08-17T09:57:30.327Z,22.68
2022-08-17T10:00:16.691Z,22.79
2022-08-17T10:03:16.791Z,22.67
2022-08-17T10:05:59.400Z,22.54
2022-08-17T10:09:08.290Z,22.35
2022-08-17T10:12:30.268Z,22.09
2022-08-17T10:15:09.347Z,21.86
2022-08-17T10:17:45.288Z,21.86
2022-08-17T10:20:34.037Z,21.66
2022-08-17T10:23:21.649Z,21.51
2022-08-17T10:26:04.506Z,21.22
2022-08-17T10:28:47.787Z,21.20
2022-08-17T10:31:40.067Z,21.16
2022-08-17T10:34:27.824Z,21.23
2022-08-17T10:37:24.748Z,21.44
2022-08-17T10:40:19.022Z,21.56
2022-08-17T10:43:10.217Z,21.57
2022-08-17T10:45:48.622Z,21.60
2022-08-17T10:48:38.268Z,21.67
2022-08-17T10:51:09.262Z,21.64
2022-08-17T10:53:35.691Z,21.76
2022-08-17T10:56:13.938Z,21.79
2022-08-17T10:58:49.678Z,21.86
2022-08-17T11:01:17.965Z,21.87
2022-08-17T11:03:55.857Z,21.94
2022-08-17T11:06:31.086Z,21.89
2022-08-17T11:09:28.710Z,22.02
2022-08-17T11:12:33.758Z,22.04
2022-08-17T11:15:27.813Z,22.01
2022-08-17T11:17:58.157Z,22.05
2022-08-17T11:20:38.707Z,22.14
2022-08-17T11:23:32.510Z,22.10
2022-08-17T11:26:08.578Z,22.09
2022-08-17T11:28:48.851Z,22.12
2022-08-17T11:31:38.498Z,21.77
2022-08-17T11:34:26.466Z,21.69
2022-08-17T11:37:17.690Z,21.54
2022-08-17T11:40:35.693Z,21.75
2022-08-17T11:43:28.372Z,21.84
2022-08-17T11:46:07.259Z,21.86
2022-08-17T11:49:26.475Z,21.80
2022-08-17T11:52:01.824Z,22.02
2022-08-17T11:54:33.823Z,21.92
2022-08-17T11:57:26.573Z,22.04
2022-08-17T12:00:00.984Z,22.17
2022-08-17T12:02:35.062Z,22.28
2022-08-17T12:05:27.247Z,22.11
2022-08-17T12:07:56.552Z,22.16
2022-08-17T12:10:32.581Z,22.30
2022-08-17T12:13:05.291Z,22.45
2022-08-17T12:15:37.341Z,22.58
2022-08-17T12:18:04.269Z,22.44
2022-08-17T12:20:38.237Z,22.43
2022-08-17T12:23:33.791Z,22.66
2022-08-17T12:26:20.846Z,22.87
2022-08-17T12:28:51.773Z,23.08
2022-08-17T12:31:49.136Z,23.29
2022-08-17T12:34:26.594Z,23.36
2022-08-17T12:36:59.882Z,23.50
2022-08-17T12:39:27.858Z,23.62
2022-08-17T12:42:02.785Z,23.67
2022-08-17T12:44:33.487Z,23.69
2022-08-17T12:47:07.605Z,23.73
2022-08-17T12:49:37.203Z,23.74
2022-08-17T12:52:11.089Z,23.70
2022-08-17T12:54:40.324Z,23.73
2022-08-17T12:57:13.411Z,23.77
2022-08-17T12:59:46.449Z,23.85
2022-08-17T13:02:51.087Z,24.11
2022-08-17T13:05:36.137Z,24.19
2022-08-17T13:08:13.589Z,23.79
2022-08-17T13:10:40.927Z,23.83
2022-08-17T13:13:21.880Z,23.94
2022-08-17T13:16:00.760Z,24.00
2022-08-17T13:18:39.010Z,24.31
2022-08-17T13:21:30.362Z,24.42
2022-08-17T13:24:22.086Z,24.53
2022-08-17T13:27:07.986Z,24.41
2022-08-17T13:29:39.398Z,24.55
2022-08-17T13:32:13.000Z,24.79
2022-08-17T13:35:08.325Z,24.95
2022-08-17T13:37:36.180Z,24.96
2022-08-17T13:40:09.021Z,24.95
2022-08-17T13:42:53.134Z,24.90
2022-08-17T13:45:36.246Z,24.87
2022-08-17T13:48:14.504Z,24.87
2022-08-17T13:50:55.233Z,24.77
2022-08-17T13:53:34.241Z,24.75
2022-08-17T13:56:37.020Z,24.79
2022-08-17T13:59:12.482Z,24.74
2022-08-17T14:01:53.362Z,24.87
2022-08-17T14:04:25.117Z,24.77
2022-08-17T14:07:03.655Z,24.69
2022-08-17T14:09:39.971Z,24.86
2022-08-17T14:12:10.694Z,24.91
2022-08-17T14:14:38.118Z,24.94
2022-08-17T14:17:05.494Z,24.99
2022-08-17T14:19:36.037Z,24.97
2022-08-17T14:22:03.817Z,25.07
2022-08-17T14:24:41.233Z,25.18
2022-08-17T14:27:10.613Z,25.16
2022-08-17T14:29:37.114Z,25.16
2022-08-17T14:32:16.493Z,25.22
2022-08-17T14:34:43.122Z,25.35
2022-08-17T14:37:09.909Z,25.46
2022-08-17T14:39:36.640Z,25.43
2022-08-17T14:42:03.664Z,25.48
2022-08-17T14:44:30.254Z,25.52
2022-08-17T14:46:56.815Z,25.52
2022-08-17T14:49:23.880Z,25.50
2022-08-17T14:51:51.247Z,25.57
2022-08-17T14:54:33.868Z,25.68
2022-08-17T14:57:22.722Z,25.99
2022-08-17T14:59:54.593Z,26.32
2022-08-17T15:02:29.544Z,26.42
2022-08-17T15:05:03.558Z,26.67
2022-08-17T15:07:30.413Z,26.83
2022-08-17T15:09:58.690Z,26.95
2022-08-17T15:12:32.081Z,27.13
2022-08-17T15:15:00.698Z,27.28
2022-08-17T15:17:27.567Z,27.49
2022-08-17T15:20:17.874Z,27.56
2022-08-17T15:22:46.443Z,27.57
2022-08-17T15:25:13.652Z,27.57
2022-08-17T15:27:40.509Z,27.48
2022-08-17T15:30:08.552Z,27.50
2022-08-17T15:32:38.301Z,27.57
2022-08-17T15:35:07.783Z,27.62
2022-08-17T15:37:36.400Z,27.62
2022-08-17T15:40:04.041Z,27.71
2022-08-17T15:42:30.981Z,27.67
2022-08-17T15:44:57.649Z,27.64
2022-08-17T15:47:24.223Z,27.73
2022-08-17T15:49:50.933Z,27.71
2022-08-17T15:52:29.842Z,27.73
2022-08-17T15:54:59.622Z,27.76
2022-08-17T15:57:27.374Z,27.77
2022-08-17T15:59:58.580Z,27.83
2022-08-17T16:03:14.688Z,27.86
2022-08-17T16:05:19.862Z,27.89
2022-08-17T16:07:47.051Z,27.91
2022-08-17T16:10:18.808Z,28.00
2022-08-17T16:12:47.861Z,28.06
2022-08-17T16:15:16.234Z,27.81
2022-08-17T16:17:42.982Z,27.69
2022-08-17T16:20:19.960Z,27.60
2022-08-17T16:22:49.141Z,27.18
2022-08-17T16:25:22.273Z,27.26
2022-08-17T16:27:53.379Z,27.09
2022-08-17T16:30:23.332Z,27.00
2022-08-17T16:32:54.006Z,26.82
2022-08-17T16:35:25.062Z,26.76
2022-08-17T16:37:56.202Z,26.77
2022-08-17T16:40:26.902Z,26.56
2022-08-17T16:42:53.919Z,26.64
2022-08-17T16:45:25.935Z,26.59
2022-08-17T16:47:54.679Z,26.43
2022-08-17T16:50:23.477Z,26.38
2022-08-17T16:52:51.150Z,26.47
2022-08-17T16:55:21.918Z,26.54
2022-08-17T16:57:50.193Z,26.53
2022-08-17T17:00:18.338Z,26.60
2022-08-17T17:02:47.377Z,26.52
2022-08-17T17:05:13.930Z,26.57
2022-08-17T17:08:03.198Z,26.56
2022-08-17T17:10:41.937Z,26.21
2022-08-17T17:13:17.084Z,26.11
2022-08-17T17:16:06.917Z,26.15
2022-08-17T17:18:41.182Z,25.98
2022-08-17T17:21:17.536Z,25.69
2022-08-17T17:23:56.143Z,25.50
2022-08-17T17:26:50.470Z,25.32
2022-08-17T17:29:28.999Z,25.37
2022-08-17T17:32:24.723Z,25.39
2022-08-17T17:34:59.713Z,25.44
2022-08-17T17:37:33.898Z,25.48
2022-08-17T17:40:06.607Z,25.46
2022-08-17T17:42:33.990Z,25.37
2022-08-17T17:45:12.190Z,25.36
2022-08-17T17:47:39.035Z,25.29
2022-08-17T17:50:07.609Z,25.17
2022-08-17T17:53:02.146Z,25.17
2022-08-17T17:55:32.883Z,25.18
2022-08-17T17:58:13.700Z,25.15
2022-08-17T18:00:52.699Z,25.10
2022-08-17T18:03:51.779Z,25.02
2022-08-17T18:06:18.756Z,25.03
2022-08-17T18:09:04.539Z,25.02
2022-08-17T18:11:51.501Z,25.00
2022-08-17T18:14:39.492Z,24.96
2022-08-17T18:17:06.810Z,24.78
2022-08-17T18:19:33.514Z,24.81
2022-08-17T18:22:14.194Z,24.76
2022-08-17T18:24:44.991Z,24.74
2022-08-17T18:27:29.106Z,24.68
2022-08-17T18:29:58.119Z,24.58
2022-08-17T18:32:29.662Z,24.58
2022-08-17T18:35:02.757Z,24.47
2022-08-17T18:37:48.388Z,24.45
2022-08-17T18:40:18.417Z,24.37
2022-08-17T18:43:03.072Z,24.29
2022-08-17T18:45:34.415Z,24.21
2022-08-17T18:48:01.703Z,24.15
2022-08-17T18:50:36.580Z,24.11
2022-08-17T18:53:26.826Z,24.07
2022-08-17T18:56:24.651Z,24.01
2022-08-17T18:59:10.993Z,23.96
2022-08-17T19:01:52.474Z,23.94
2022-08-17T19:05:01.956Z,23.92
2022-08-17T19:07:34.566Z,23.84
2022-08-17T19:10:04.114Z,23.76
2022-08-17T19:12:47.174Z,23.69
2022-08-17T19:15:19.100Z,23.60
2022-08-17T19:18:03.553Z,23.54
2022-08-17T19:20:41.655Z,23.42
2022-08-17T19:23:23.191Z,23.34
2022-08-17T19:25:53.342Z,23.23
2022-08-17T19:28:23.042Z,23.17
2022-08-17T19:30:54.685Z,23.04
2022-08-17T19:33:21.509Z,22.95
2022-08-17T19:35:57.502Z,22.94
2022-08-17T19:38:35.648Z,22.86
2022-08-17T19:41:02.157Z,22.82
2022-08-17T19:43:28.643Z,22.77
2022-08-17T19:46:18.865Z,22.67
2022-08-17T19:49:04.499Z,22.54
2022-08-17T19:51:57.097Z,22.39
2022-08-17T19:54:34.996Z,22.28
2022-08-17T19:57:27.381Z,22.23
2022-08-17T20:00:02.814Z,22.12
2022-08-17T20:02:44.250Z,22.07
2022-08-17T20:05:25.597Z,21.97
2022-08-17T20:08:07.620Z,21.92
2022-08-17T20:10:45.186Z,21.83
2022-08-17T20:13:33.575Z,21.72
2022-08-17T20:16:01.701Z,21.63
2022-08-17T20:18:34.292Z,21.57
2022-08-17T20:21:20.063Z,21.53
2022-08-17T20:23:59.507Z,21.46
2022-08-17T20:26:49.130Z,21.35
2022-08-17T20:29:37.486Z,21.27
2022-08-17T20:32:17.535Z,21.23
2022-08-17T20:34:47.243Z,21.21
2022-08-17T20:37:14.415Z,21.16
2022-08-17T20:39:50.084Z,21.12
2022-08-17T20:42:19.875Z,21.04
2022-08-17T20:44:48.964Z,20.96
2022-08-17T20:47:27.028Z,20.95
2022-08-17T20:50:08.290Z,20.89
2022-08-17T20:52:56.065Z,20.88
2022-08-17T20:55:51.811Z,20.88
2022-08-17T20:58:30.811Z,20.81
2022-08-17T21:00:57.858Z,20.77
2022-08-17T21:03:24.499Z,20.68
2022-08-17T21:06:02.890Z,20.61
2022-08-17T21:08:54.577Z,20.48
2022-08-17T21:11:56.870Z,20.48
2022-08-17T21:14:46.020Z,20.43
2022-08-17T21:17:24.783Z,20.35
2022-08-17T21:20:10.848Z,20.26
2022-08-17T21:22:38.240Z,20.22
2022-08-17T21:25:26.377Z,20.14
2022-08-17T21:28:01.795Z,20.11
2022-08-17T21:30:28.245Z,20.11
2022-08-17T21:33:17.866Z,20.12
2022-08-17T21:36:12.755Z,20.09
2022-08-17T21:38:55.689Z,20.01
2022-08-17T21:41:33.708Z,19.99
2022-08-17T21:44:13.304Z,19.93
2022-08-17T21:46:43.007Z,19.83
2022-08-17T21:49:16.764Z,19.82
2022-08-17T21:51:56.444Z,19.82
2022-08-17T21:54:35.467Z,19.83
2022-08-17T21:57:05.747Z,19.80
2022-08-17T21:59:37.383Z,19.77
2022-08-17T22:02:07.430Z,19.70
2022-08-17T22:04:35.936Z,19.65
2022-08-17T22:07:09.356Z,19.66
2022-08-17T22:09:43.804Z,19.58
2022-08-17T22:12:15.735Z,19.64
2022-08-17T22:15:01.032Z,19.67
2022-08-17T22:17:37.016Z,19.67
2022-08-17T22:20:33.395Z,19.78
2022-08-17T22:23:18.467Z,19.80
2022-08-17T22:26:02.163Z,19.82
2022-08-17T22:28:46.584Z,19.82
2022-08-17T22:31:16.623Z,19.67
2022-08-17T22:34:03.352Z,19.71
2022-08-17T22:36:36.870Z,19.68
2022-08-17T22:39:09.363Z,19.65
2022-08-17T22:41:48.005Z,19.55
2022-08-17T22:44:17.618Z,19.52
2022-08-17T22:46:57.842Z,19.52
2022-08-17T22:49:29.271Z,19.42
2022-08-17T22:52:04.978Z,19.49
2022-08-17T22:54:50.296Z,19.44
2022-08-17T22:57:36.850Z,19.51
2022-08-17T23:00:05.597Z,19.55
2022-08-17T23:02:34.155Z,19.55
2022-08-17T23:05:13.299Z,19.57
2022-08-17T23:07:40.542Z,19.55
2022-08-17T23:10:10.343Z,19.56
2022-08-17T23:12:38.865Z,19.54
2022-08-17T23:18:05.897Z,19.30
2022-08-17T23:20:35.889Z,19.28
2022-08-17T23:23:06.412Z,19.20
2022-08-17T23:25:35.228Z,19.13
2022-08-17T23:28:05.089Z,19.01
2022-08-17T23:30:35.617Z,18.92
2022-08-17T23:33:07.673Z,18.84
2022-08-17T23:35:40.635Z,18.84
2022-08-17T23:38:12.873Z,18.86
2022-08-17T23:40:40.561Z,18.87
2022-08-17T23:43:23.416Z,18.81
2022-08-17T23:45:58.506Z,18.75
2022-08-17T23:48:34.921Z,18.70
2022-08-17T23:51:05.882Z,18.75
2022-08-17T23:53:34.371Z,18.79
2022-08-17T23:56:03.942Z,18.83
2022-08-17T23:58:38.521Z,18.80
